Contact Us:
Email: info@sawbill.com
Phone: (218)663-7150
Fax: (218)663-7980
Mail: 4620 Sawbill Trail
Box 2129
Tofte, MN 55615


Powered by
Movable Type 3.15
 
Sawbill Weather History Archives: July 2005
Current Sawbill Weather History | « June 2005 | August 2005 »


Date

High
Temperature

Low
Temperature

Barometric
Pressure

Relative
Humidity 7AM

9 AM
Temperature

Moisture

Snow

7/31/05 90 63 30.08 43% 67 0
7/30/05 74 57 30.02 81% 66 .04"
7/29/05 74 51 30.21 79% 57 0
7/28/05 69 45 30.21 76% 45 .14"
7/27/05 75 47 30.03 85% 57 .07"
7/26/05 70 45 30.11 81% 47 0
7/25/05 81 53 29.93 77% 54 .34"
7/24/05 82 60 29.94 62% 67 0
7/23/05 80 60 29.84 90% 67 0
7/22/05 88 54 30.16 73% 60 0
7/21/05 85 59 30.20 86% 60 0
7/20/05 89 59 30.10 79% 59 0
7/19/05 74 54 29.85 85% 66 .08"
7/18/05 75 51 30.01 84% 54 0
7/17/05 91 64 29.66 80% 64 .04"
7/16/05 87 67 29.89 90% 70 .11"
7/15/05 84 56 30.04 87% 68 0
7/14/05 85 53 30.05 82% 56 0
7/13/05 92 57 30.16 83% 59 0
7/12/05 90 67 30.15 80% 67 0
7/11/05 90 65 30.11 86% 69 0
7/10/05 89 64 30.11 84% 66 0
7/9/05 89 61 30.09 89% 64 0
7/8/05 80 57 30.07 88% 61 .03"
7/7/05 79 48 30.13 80% 57 0
7/6/05 77 46 30.17 82% 48 0
7/5/05 68 42 30.19 41% 49 0
7/4/05 74 53 30.13 84% 53 0.1"
7/3/05 80 56 29.83 85% 59 .10"
7/2/05 77 56 29.70 84% 60 0
7/1/05 74 50 29.95 83% 56 0
 


Home I Trip Planning I Rentals and Outfitting I Reservations I Campgrounds I Sawbill Store I Sawbill News I Contact

© 1997 - 2017, Sawbill Canoe Outfitters, Inc. I Privacy Policy